sensor_id;sensor_type;location;lat;lon;timestamp;P1;durP1;ratioP1;P2;durP2;ratioP2
64799;SDS011;51233;51.982;4.594;2023-03-29T00:02:56;3.50;;;2.00;;
64799;SDS011;51233;51.982;4.594;2023-03-29T00:05:58;3.30;;;2.20;;
64799;SDS011;51233;51.982;4.594;2023-03-29T00:09:01;2.30;;;2.10;;
64799;SDS011;51233;51.982;4.594;2023-03-29T00:12:04;3.58;;;2.38;;
64799;SDS011;51233;51.982;4.594;2023-03-29T00:15:05;3.30;;;2.00;;
64799;SDS011;51233;51.982;4.594;2023-03-29T00:18:06;3.97;;;2.20;;
64799;SDS011;51233;51.982;4.594;2023-03-29T00:21:06;3.97;;;2.28;;
64799;SDS011;51233;51.982;4.594;2023-03-29T00:24:06;7.43;;;2.08;;
64799;SDS011;51233;51.982;4.594;2023-03-29T00:27:06;6.65;;;2.10;;
64799;SDS011;51233;51.982;4.594;2023-03-29T00:30:07;3.30;;;2.27;;
64799;SDS011;51233;51.982;4.594;2023-03-29T00:33:07;1.95;;;1.83;;
64799;SDS011;51233;51.982;4.594;2023-03-29T00:36:09;2.50;;;2.25;;
64799;SDS011;51233;51.982;4.594;2023-03-29T00:39:09;2.28;;;2.08;;
64799;SDS011;51233;51.982;4.594;2023-03-29T00:42:13;3.42;;;2.22;;
64799;SDS011;51233;51.982;4.594;2023-03-29T00:45:15;3.15;;;2.33;;
64799;SDS011;51233;51.982;4.594;2023-03-29T00:48:22;3.38;;;2.17;;
64799;SDS011;51233;51.982;4.594;2023-03-29T00:51:25;3.15;;;2.20;;
64799;SDS011;51233;51.982;4.594;2023-03-29T00:54:27;4.22;;;2.40;;
64799;SDS011;51233;51.982;4.594;2023-03-29T00:57:31;4.65;;;2.22;;
64799;SDS011;51233;51.982;4.594;2023-03-29T01:00:34;5.07;;;2.60;;
64799;SDS011;51233;51.982;4.594;2023-03-29T01:03:36;3.22;;;2.53;;
64799;SDS011;51233;51.982;4.594;2023-03-29T01:06:40;3.38;;;2.03;;
64799;SDS011;51233;51.982;4.594;2023-03-29T01:12:43;5.43;;;2.65;;
64799;SDS011;51233;51.982;4.594;2023-03-29T01:15:45;3.25;;;2.47;;
64799;SDS011;51233;51.982;4.594;2023-03-29T01:18:45;6.60;;;2.65;;
64799;SDS011;51233;51.982;4.594;2023-03-29T01:21:50;4.38;;;2.45;;
64799;SDS011;51233;51.982;4.594;2023-03-29T01:24:56;3.28;;;2.67;;
64799;SDS011;51233;51.982;4.594;2023-03-29T01:28:05;4.68;;;2.47;;
64799;SDS011;51233;51.982;4.594;2023-03-29T01:31:08;5.10;;;2.22;;
64799;SDS011;51233;51.982;4.594;2023-03-29T01:34:11;4.22;;;2.67;;
64799;SDS011;51233;51.982;4.594;2023-03-29T01:40:31;4.22;;;2.70;;
64799;SDS011;51233;51.982;4.594;2023-03-29T01:43:36;4.00;;;2.60;;
64799;SDS011;51233;51.982;4.594;2023-03-29T01:46:44;4.00;;;2.58;;
64799;SDS011;51233;51.982;4.594;2023-03-29T01:49:51;4.72;;;2.67;;
64799;SDS011;51233;51.982;4.594;2023-03-29T01:53:29;5.00;;;2.33;;
64799;SDS011;51233;51.982;4.594;2023-03-29T01:56:21;4.75;;;2.53;;
64799;SDS011;51233;51.982;4.594;2023-03-29T01:59:27;2.60;;;2.40;;
64799;SDS011;51233;51.982;4.594;2023-03-29T02:02:38;3.10;;;2.80;;
64799;SDS011;51233;51.982;4.594;2023-03-29T02:05:40;6.10;;;2.75;;
64799;SDS011;51233;51.982;4.594;2023-03-29T02:08:41;3.17;;;2.65;;
64799;SDS011;51233;51.982;4.594;2023-03-29T02:11:42;3.60;;;2.47;;
64799;SDS011;51233;51.982;4.594;2023-03-29T02:14:43;8.00;;;3.13;;
64799;SDS011;51233;51.982;4.594;2023-03-29T02:17:44;3.35;;;2.33;;
64799;SDS011;51233;51.982;4.594;2023-03-29T02:20:45;4.40;;;2.30;;
64799;SDS011;51233;51.982;4.594;2023-03-29T02:23:47;4.70;;;2.72;;
64799;SDS011;51233;51.982;4.594;2023-03-29T02:26:48;3.53;;;2.60;;
64799;SDS011;51233;51.982;4.594;2023-03-29T02:29:48;4.80;;;2.47;;
64799;SDS011;51233;51.982;4.594;2023-03-29T02:32:51;3.38;;;2.67;;
64799;SDS011;51233;51.982;4.594;2023-03-29T02:36:02;4.93;;;2.78;;
64799;SDS011;51233;51.982;4.594;2023-03-29T02:39:03;4.85;;;2.70;;
64799;SDS011;51233;51.982;4.594;2023-03-29T02:42:05;3.67;;;2.58;;
64799;SDS011;51233;51.982;4.594;2023-03-29T02:45:06;2.85;;;2.22;;
64799;SDS011;51233;51.982;4.594;2023-03-29T02:48:09;3.78;;;2.88;;
64799;SDS011;51233;51.982;4.594;2023-03-29T02:51:13;2.63;;;2.42;;
64799;SDS011;51233;51.982;4.594;2023-03-29T02:54:15;4.38;;;2.75;;
64799;SDS011;51233;51.982;4.594;2023-03-29T02:57:17;5.78;;;3.03;;
64799;SDS011;51233;51.982;4.594;2023-03-29T03:00:25;5.32;;;2.78;;
64799;SDS011;51233;51.982;4.594;2023-03-29T03:03:25;2.67;;;2.47;;
64799;SDS011;51233;51.982;4.594;2023-03-29T03:06:26;3.78;;;2.70;;
64799;SDS011;51233;51.982;4.594;2023-03-29T03:09:28;5.72;;;3.00;;
64799;SDS011;51233;51.982;4.594;2023-03-29T03:12:28;5.30;;;3.13;;
64799;SDS011;51233;51.982;4.594;2023-03-29T03:15:28;7.18;;;3.25;;
64799;SDS011;51233;51.982;4.594;2023-03-29T03:18:30;7.43;;;3.15;;
64799;SDS011;51233;51.982;4.594;2023-03-29T03:21:30;4.90;;;2.95;;
64799;SDS011;51233;51.982;4.594;2023-03-29T03:24:30;4.60;;;2.80;;
64799;SDS011;51233;51.982;4.594;2023-03-29T03:27:31;3.70;;;2.97;;
64799;SDS011;51233;51.982;4.594;2023-03-29T03:30:32;3.63;;;2.72;;
64799;SDS011;51233;51.982;4.594;2023-03-29T03:33:33;5.28;;;3.25;;
64799;SDS011;51233;51.982;4.594;2023-03-29T03:36:34;3.03;;;2.72;;
64799;SDS011;51233;51.982;4.594;2023-03-29T03:39:34;5.75;;;2.90;;
64799;SDS011;51233;51.982;4.594;2023-03-29T03:42:34;4.85;;;3.08;;
64799;SDS011;51233;51.982;4.594;2023-03-29T03:45:34;4.47;;;3.10;;
64799;SDS011;51233;51.982;4.594;2023-03-29T03:48:37;5.75;;;2.97;;
64799;SDS011;51233;51.982;4.594;2023-03-29T03:51:38;5.38;;;3.60;;
64799;SDS011;51233;51.982;4.594;2023-03-29T03:54:38;4.85;;;2.97;;
64799;SDS011;51233;51.982;4.594;2023-03-29T03:57:38;5.20;;;3.17;;
64799;SDS011;51233;51.982;4.594;2023-03-29T04:00:38;5.53;;;3.08;;
64799;SDS011;51233;51.982;4.594;2023-03-29T04:03:39;12.88;;;3.08;;
64799;SDS011;51233;51.982;4.594;2023-03-29T04:06:39;4.63;;;2.92;;
64799;SDS011;51233;51.982;4.594;2023-03-29T04:09:42;4.53;;;2.90;;
64799;SDS011;51233;51.982;4.594;2023-03-29T04:12:44;5.22;;;3.22;;
64799;SDS011;51233;51.982;4.594;2023-03-29T04:15:44;3.95;;;2.78;;
64799;SDS011;51233;51.982;4.594;2023-03-29T04:18:48;4.68;;;3.10;;
64799;SDS011;51233;51.982;4.594;2023-03-29T04:21:48;5.53;;;2.80;;
64799;SDS011;51233;51.982;4.594;2023-03-29T04:24:50;4.25;;;2.67;;
64799;SDS011;51233;51.982;4.594;2023-03-29T04:27:50;4.82;;;3.55;;
64799;SDS011;51233;51.982;4.594;2023-03-29T04:30:50;4.80;;;2.57;;
64799;SDS011;51233;51.982;4.594;2023-03-29T04:33:51;4.43;;;2.97;;
64799;SDS011;51233;51.982;4.594;2023-03-29T04:36:54;4.43;;;2.88;;
64799;SDS011;51233;51.982;4.594;2023-03-29T04:39:54;5.50;;;3.20;;
64799;SDS011;51233;51.982;4.594;2023-03-29T04:42:54;4.07;;;3.05;;
64799;SDS011;51233;51.982;4.594;2023-03-29T04:45:54;6.18;;;3.30;;
64799;SDS011;51233;51.982;4.594;2023-03-29T04:48:55;6.65;;;3.33;;
64799;SDS011;51233;51.982;4.594;2023-03-29T04:51:56;5.63;;;3.28;;
64799;SDS011;51233;51.982;4.594;2023-03-29T04:54:56;3.35;;;2.97;;
64799;SDS011;51233;51.982;4.594;2023-03-29T04:57:59;5.28;;;3.20;;
64799;SDS011;51233;51.982;4.594;2023-03-29T05:00:59;5.13;;;3.10;;
64799;SDS011;51233;51.982;4.594;2023-03-29T05:03:59;4.90;;;2.97;;
64799;SDS011;51233;51.982;4.594;2023-03-29T05:07:00;5.70;;;3.97;;
64799;SDS011;51233;51.982;4.594;2023-03-29T05:10:01;4.27;;;3.20;;
64799;SDS011;51233;51.982;4.594;2023-03-29T05:13:01;5.43;;;3.40;;
64799;SDS011;51233;51.982;4.594;2023-03-29T05:16:24;3.90;;;3.50;;
64799;SDS011;51233;51.982;4.594;2023-03-29T05:22:26;4.63;;;3.63;;
64799;SDS011;51233;51.982;4.594;2023-03-29T05:25:27;5.97;;;3.65;;
64799;SDS011;51233;51.982;4.594;2023-03-29T05:28:28;3.80;;;3.40;;
64799;SDS011;51233;51.982;4.594;2023-03-29T05:31:28;4.87;;;4.30;;
64799;SDS011;51233;51.982;4.594;2023-03-29T05:34:28;4.90;;;3.85;;
64799;SDS011;51233;51.982;4.594;2023-03-29T05:37:31;6.90;;;3.95;;
64799;SDS011;51233;51.982;4.594;2023-03-29T05:40:33;8.27;;;4.45;;
64799;SDS011;51233;51.982;4.594;2023-03-29T05:43:34;5.63;;;4.13;;
64799;SDS011;51233;51.982;4.594;2023-03-29T05:46:35;4.35;;;3.22;;
64799;SDS011;51233;51.982;4.594;2023-03-29T05:49:35;5.40;;;3.10;;
64799;SDS011;51233;51.982;4.594;2023-03-29T05:52:36;3.72;;;3.28;;
64799;SDS011;51233;51.982;4.594;2023-03-29T05:55:37;5.05;;;3.70;;
64799;SDS011;51233;51.982;4.594;2023-03-29T05:58:37;6.73;;;3.33;;
64799;SDS011;51233;51.982;4.594;2023-03-29T06:01:38;4.77;;;3.53;;
64799;SDS011;51233;51.982;4.594;2023-03-29T06:04:38;9.03;;;3.30;;
64799;SDS011;51233;51.982;4.594;2023-03-29T06:07:39;8.07;;;3.77;;
64799;SDS011;51233;51.982;4.594;2023-03-29T06:10:42;6.55;;;3.40;;
64799;SDS011;51233;51.982;4.594;2023-03-29T06:13:42;6.63;;;3.80;;
64799;SDS011;51233;51.982;4.594;2023-03-29T06:16:42;6.28;;;3.95;;
64799;SDS011;51233;51.982;4.594;2023-03-29T06:19:43;6.73;;;3.90;;
64799;SDS011;51233;51.982;4.594;2023-03-29T06:22:44;7.40;;;3.70;;
64799;SDS011;51233;51.982;4.594;2023-03-29T06:25:46;4.78;;;4.00;;
64799;SDS011;51233;51.982;4.594;2023-03-29T06:28:47;6.57;;;3.57;;
64799;SDS011;51233;51.982;4.594;2023-03-29T06:31:47;4.47;;;3.67;;
64799;SDS011;51233;51.982;4.594;2023-03-29T06:34:48;4.60;;;3.40;;
64799;SDS011;51233;51.982;4.594;2023-03-29T06:37:48;5.20;;;3.80;;
64799;SDS011;51233;51.982;4.594;2023-03-29T06:40:49;7.70;;;3.97;;
64799;SDS011;51233;51.982;4.594;2023-03-29T06:43:50;5.70;;;3.78;;
64799;SDS011;51233;51.982;4.594;2023-03-29T06:46:50;6.13;;;4.13;;
64799;SDS011;51233;51.982;4.594;2023-03-29T06:49:50;7.17;;;4.43;;
64799;SDS011;51233;51.982;4.594;2023-03-29T06:52:51;5.00;;;3.70;;
64799;SDS011;51233;51.982;4.594;2023-03-29T06:55:51;6.83;;;4.50;;
64799;SDS011;51233;51.982;4.594;2023-03-29T06:58:51;6.70;;;3.70;;
64799;SDS011;51233;51.982;4.594;2023-03-29T07:01:52;6.07;;;3.72;;
64799;SDS011;51233;51.982;4.594;2023-03-29T07:04:52;7.90;;;4.37;;
64799;SDS011;51233;51.982;4.594;2023-03-29T07:07:53;9.10;;;4.93;;
64799;SDS011;51233;51.982;4.594;2023-03-29T07:10:55;7.38;;;4.68;;
64799;SDS011;51233;51.982;4.594;2023-03-29T07:13:57;6.22;;;3.88;;
64799;SDS011;51233;51.982;4.594;2023-03-29T07:16:57;6.50;;;4.50;;
64799;SDS011;51233;51.982;4.594;2023-03-29T07:19:57;9.45;;;5.22;;
64799;SDS011;51233;51.982;4.594;2023-03-29T07:22:58;7.53;;;4.60;;
64799;SDS011;51233;51.982;4.594;2023-03-29T07:25:58;5.88;;;4.25;;
64799;SDS011;51233;51.982;4.594;2023-03-29T07:29:02;8.18;;;4.60;;
64799;SDS011;51233;51.982;4.594;2023-03-29T07:32:02;6.85;;;4.65;;
64799;SDS011;51233;51.982;4.594;2023-03-29T07:35:03;7.97;;;4.38;;
64799;SDS011;51233;51.982;4.594;2023-03-29T07:38:04;7.30;;;5.25;;
64799;SDS011;51233;51.982;4.594;2023-03-29T07:41:05;11.88;;;5.38;;
64799;SDS011;51233;51.982;4.594;2023-03-29T07:44:05;8.50;;;5.22;;
64799;SDS011;51233;51.982;4.594;2023-03-29T07:47:08;8.05;;;4.95;;
64799;SDS011;51233;51.982;4.594;2023-03-29T07:50:08;13.55;;;4.95;;
64799;SDS011;51233;51.982;4.594;2023-03-29T07:53:23;7.70;;;4.10;;
64799;SDS011;51233;51.982;4.594;2023-03-29T07:56:24;8.30;;;5.63;;
64799;SDS011;51233;51.982;4.594;2023-03-29T07:59:24;14.77;;;7.20;;
64799;SDS011;51233;51.982;4.594;2023-03-29T08:02:27;5.95;;;4.60;;
64799;SDS011;51233;51.982;4.594;2023-03-29T08:05:28;12.18;;;5.78;;
64799;SDS011;51233;51.982;4.594;2023-03-29T08:08:28;9.87;;;6.13;;
64799;SDS011;51233;51.982;4.594;2023-03-29T08:11:28;12.93;;;7.00;;
64799;SDS011;51233;51.982;4.594;2023-03-29T08:14:29;12.32;;;7.65;;
64799;SDS011;51233;51.982;4.594;2023-03-29T08:17:29;11.98;;;7.25;;
64799;SDS011;51233;51.982;4.594;2023-03-29T08:20:29;13.50;;;6.93;;
64799;SDS011;51233;51.982;4.594;2023-03-29T08:23:29;13.77;;;6.05;;
64799;SDS011;51233;51.982;4.594;2023-03-29T08:26:30;16.15;;;8.40;;
64799;SDS011;51233;51.982;4.594;2023-03-29T08:29:31;12.77;;;8.67;;
64799;SDS011;51233;51.982;4.594;2023-03-29T08:32:34;14.98;;;8.65;;
64799;SDS011;51233;51.982;4.594;2023-03-29T08:35:35;13.57;;;9.00;;
64799;SDS011;51233;51.982;4.594;2023-03-29T08:38:35;14.65;;;8.85;;
64799;SDS011;51233;51.982;4.594;2023-03-29T08:41:45;14.70;;;8.65;;
64799;SDS011;51233;51.982;4.594;2023-03-29T08:54:16;15.05;;;8.40;;
64799;SDS011;51233;51.982;4.594;2023-03-29T08:57:23;15.68;;;8.10;;
64799;SDS011;51233;51.982;4.594;2023-03-29T09:00:39;12.85;;;8.85;;
64799;SDS011;51233;51.982;4.594;2023-03-29T09:03:47;10.75;;;7.82;;
64799;SDS011;51233;51.982;4.594;2023-03-29T09:06:47;12.80;;;7.30;;
64799;SDS011;51233;51.982;4.594;2023-03-29T09:09:48;9.15;;;7.00;;
64799;SDS011;51233;51.982;4.594;2023-03-29T09:12:52;10.70;;;6.43;;
64799;SDS011;51233;51.982;4.594;2023-03-29T09:15:59;10.98;;;6.60;;
64799;SDS011;51233;51.982;4.594;2023-03-29T09:25:34;10.13;;;6.28;;
64799;SDS011;51233;51.982;4.594;2023-03-29T09:28:59;9.38;;;7.18;;
64799;SDS011;51233;51.982;4.594;2023-03-29T09:32:01;10.60;;;7.95;;
64799;SDS011;51233;51.982;4.594;2023-03-29T09:38:13;9.70;;;7.80;;
64799;SDS011;51233;51.982;4.594;2023-03-29T09:44:15;13.52;;;7.60;;
64799;SDS011;51233;51.982;4.594;2023-03-29T09:47:17;9.30;;;7.25;;
64799;SDS011;51233;51.982;4.594;2023-03-29T09:50:20;6.57;;;5.88;;
64799;SDS011;51233;51.982;4.594;2023-03-29T09:53:22;11.00;;;7.15;;
64799;SDS011;51233;51.982;4.594;2023-03-29T09:56:23;9.32;;;6.47;;
64799;SDS011;51233;51.982;4.594;2023-03-29T09:59:23;9.20;;;5.60;;
64799;SDS011;51233;51.982;4.594;2023-03-29T10:02:28;7.85;;;5.70;;
64799;SDS011;51233;51.982;4.594;2023-03-29T10:05:29;8.07;;;5.90;;
64799;SDS011;51233;51.982;4.594;2023-03-29T10:08:35;9.63;;;5.13;;
64799;SDS011;51233;51.982;4.594;2023-03-29T10:11:37;9.68;;;4.95;;
64799;SDS011;51233;51.982;4.594;2023-03-29T10:14:44;10.43;;;4.57;;
64799;SDS011;51233;51.982;4.594;2023-03-29T10:17:45;6.53;;;4.85;;
64799;SDS011;51233;51.982;4.594;2023-03-29T10:20:45;5.20;;;4.50;;
64799;SDS011;51233;51.982;4.594;2023-03-29T10:23:47;5.13;;;4.63;;
64799;SDS011;51233;51.982;4.594;2023-03-29T10:26:50;7.05;;;5.70;;
64799;SDS011;51233;51.982;4.594;2023-03-29T10:29:55;7.88;;;6.20;;
64799;SDS011;51233;51.982;4.594;2023-03-29T10:32:57;8.15;;;6.80;;
64799;SDS011;51233;51.982;4.594;2023-03-29T10:35:58;8.98;;;6.90;;
64799;SDS011;51233;51.982;4.594;2023-03-29T10:39:00;10.80;;;7.80;;
64799;SDS011;51233;51.982;4.594;2023-03-29T10:42:01;9.18;;;6.65;;
64799;SDS011;51233;51.982;4.594;2023-03-29T10:45:02;11.35;;;7.72;;
64799;SDS011;51233;51.982;4.594;2023-03-29T10:48:03;11.87;;;7.57;;
64799;SDS011;51233;51.982;4.594;2023-03-29T10:51:05;9.95;;;7.30;;
64799;SDS011;51233;51.982;4.594;2023-03-29T10:54:08;14.00;;;7.80;;
64799;SDS011;51233;51.982;4.594;2023-03-29T10:57:11;14.27;;;6.80;;
64799;SDS011;51233;51.982;4.594;2023-03-29T11:06:22;9.00;;;7.28;;
64799;SDS011;51233;51.982;4.594;2023-03-29T11:09:41;11.80;;;8.13;;
64799;SDS011;51233;51.982;4.594;2023-03-29T11:25:21;11.32;;;7.90;;
64799;SDS011;51233;51.982;4.594;2023-03-29T11:37:47;11.00;;;9.23;;
64799;SDS011;51233;51.982;4.594;2023-03-29T11:40:52;10.75;;;8.30;;
64799;SDS011;51233;51.982;4.594;2023-03-29T11:44:04;9.20;;;8.13;;
64799;SDS011;51233;51.982;4.594;2023-03-29T11:47:11;10.38;;;8.65;;
64799;SDS011;51233;51.982;4.594;2023-03-29T11:50:32;11.05;;;8.00;;
64799;SDS011;51233;51.982;4.594;2023-03-29T11:53:40;11.70;;;7.90;;
64799;SDS011;51233;51.982;4.594;2023-03-29T11:56:43;12.10;;;9.00;;
64799;SDS011;51233;51.982;4.594;2023-03-29T12:00:06;11.73;;;9.10;;
64799;SDS011;51233;51.982;4.594;2023-03-29T12:03:12;11.57;;;8.68;;
64799;SDS011;51233;51.982;4.594;2023-03-29T12:06:56;11.43;;;8.52;;
64799;SDS011;51233;51.982;4.594;2023-03-29T12:09:38;11.57;;;8.32;;
64799;SDS011;51233;51.982;4.594;2023-03-29T12:12:43;13.02;;;7.55;;
64799;SDS011;51233;51.982;4.594;2023-03-29T12:15:45;9.70;;;7.90;;
64799;SDS011;51233;51.982;4.594;2023-03-29T12:18:47;13.15;;;9.20;;
64799;SDS011;51233;51.982;4.594;2023-03-29T12:21:49;11.40;;;9.02;;
64799;SDS011;51233;51.982;4.594;2023-03-29T12:24:49;17.02;;;8.18;;
64799;SDS011;51233;51.982;4.594;2023-03-29T12:31:08;9.23;;;6.38;;
64799;SDS011;51233;51.982;4.594;2023-03-29T12:40:55;10.40;;;5.85;;
64799;SDS011;51233;51.982;4.594;2023-03-29T12:43:59;12.70;;;8.40;;
64799;SDS011;51233;51.982;4.594;2023-03-29T12:47:00;13.15;;;9.38;;
64799;SDS011;51233;51.982;4.594;2023-03-29T12:50:03;10.40;;;8.70;;
64799;SDS011;51233;51.982;4.594;2023-03-29T12:56:33;10.50;;;7.40;;
64799;SDS011;51233;51.982;4.594;2023-03-29T12:59:45;13.48;;;9.38;;
64799;SDS011;51233;51.982;4.594;2023-03-29T13:02:57;13.60;;;10.55;;
64799;SDS011;51233;51.982;4.594;2023-03-29T13:05:59;15.02;;;10.20;;
64799;SDS011;51233;51.982;4.594;2023-03-29T13:09:17;11.02;;;8.90;;
64799;SDS011;51233;51.982;4.594;2023-03-29T13:15:30;15.45;;;8.15;;
64799;SDS011;51233;51.982;4.594;2023-03-29T13:18:37;11.93;;;7.25;;
64799;SDS011;51233;51.982;4.594;2023-03-29T13:25:17;10.70;;;6.68;;
64799;SDS011;51233;51.982;4.594;2023-03-29T13:31:35;9.88;;;6.13;;
64799;SDS011;51233;51.982;4.594;2023-03-29T13:34:43;12.05;;;7.40;;
64799;SDS011;51233;51.982;4.594;2023-03-29T13:37:55;9.15;;;6.20;;
64799;SDS011;51233;51.982;4.594;2023-03-29T13:41:00;9.90;;;6.90;;
64799;SDS011;51233;51.982;4.594;2023-03-29T13:44:01;12.00;;;7.90;;
64799;SDS011;51233;51.982;4.594;2023-03-29T13:50:31;13.35;;;8.27;;
64799;SDS011;51233;51.982;4.594;2023-03-29T13:53:35;10.82;;;7.80;;
64799;SDS011;51233;51.982;4.594;2023-03-29T13:56:47;11.60;;;7.90;;
64799;SDS011;51233;51.982;4.594;2023-03-29T13:59:57;11.52;;;8.00;;
64799;SDS011;51233;51.982;4.594;2023-03-29T14:02:58;10.50;;;6.70;;
64799;SDS011;51233;51.982;4.594;2023-03-29T14:06:00;11.15;;;6.80;;
64799;SDS011;51233;51.982;4.594;2023-03-29T14:09:05;10.18;;;8.10;;
64799;SDS011;51233;51.982;4.594;2023-03-29T14:12:08;20.15;;;9.35;;
64799;SDS011;51233;51.982;4.594;2023-03-29T14:15:18;9.23;;;6.95;;
64799;SDS011;51233;51.982;4.594;2023-03-29T14:18:22;13.90;;;7.32;;
64799;SDS011;51233;51.982;4.594;2023-03-29T14:21:24;6.70;;;6.00;;
64799;SDS011;51233;51.982;4.594;2023-03-29T14:24:33;8.37;;;6.00;;
64799;SDS011;51233;51.982;4.594;2023-03-29T14:27:34;7.15;;;5.82;;
64799;SDS011;51233;51.982;4.594;2023-03-29T14:30:34;7.47;;;5.27;;
64799;SDS011;51233;51.982;4.594;2023-03-29T14:33:35;7.80;;;5.83;;
64799;SDS011;51233;51.982;4.594;2023-03-29T14:39:37;8.48;;;5.75;;
64799;SDS011;51233;51.982;4.594;2023-03-29T14:42:38;8.90;;;6.53;;
64799;SDS011;51233;51.982;4.594;2023-03-29T14:45:40;8.88;;;5.70;;
64799;SDS011;51233;51.982;4.594;2023-03-29T14:48:40;9.13;;;5.63;;
64799;SDS011;51233;51.982;4.594;2023-03-29T14:51:40;7.13;;;5.40;;
64799;SDS011;51233;51.982;4.594;2023-03-29T14:54:42;12.10;;;5.57;;
64799;SDS011;51233;51.982;4.594;2023-03-29T14:57:43;6.55;;;5.70;;
64799;SDS011;51233;51.982;4.594;2023-03-29T15:00:46;7.50;;;5.47;;
64799;SDS011;51233;51.982;4.594;2023-03-29T15:03:55;7.35;;;5.22;;
64799;SDS011;51233;51.982;4.594;2023-03-29T15:06:55;6.10;;;5.00;;
64799;SDS011;51233;51.982;4.594;2023-03-29T15:09:57;8.35;;;5.15;;
64799;SDS011;51233;51.982;4.594;2023-03-29T15:12:59;5.43;;;4.88;;
64799;SDS011;51233;51.982;4.594;2023-03-29T15:16:00;6.85;;;5.32;;
64799;SDS011;51233;51.982;4.594;2023-03-29T15:19:01;7.43;;;5.00;;
64799;SDS011;51233;51.982;4.594;2023-03-29T15:22:02;7.10;;;4.37;;
64799;SDS011;51233;51.982;4.594;2023-03-29T15:25:16;7.93;;;4.50;;
64799;SDS011;51233;51.982;4.594;2023-03-29T15:28:30;7.75;;;4.70;;
64799;SDS011;51233;51.982;4.594;2023-03-29T15:31:32;4.70;;;4.30;;
64799;SDS011;51233;51.982;4.594;2023-03-29T15:37:34;7.18;;;4.38;;
64799;SDS011;51233;51.982;4.594;2023-03-29T15:40:34;5.47;;;4.30;;
64799;SDS011;51233;51.982;4.594;2023-03-29T15:43:35;4.95;;;4.45;;
64799;SDS011;51233;51.982;4.594;2023-03-29T15:46:36;6.60;;;4.83;;
64799;SDS011;51233;51.982;4.594;2023-03-29T15:49:36;6.05;;;4.57;;
64799;SDS011;51233;51.982;4.594;2023-03-29T15:52:36;7.70;;;4.30;;
64799;SDS011;51233;51.982;4.594;2023-03-29T15:55:41;7.38;;;4.53;;
64799;SDS011;51233;51.982;4.594;2023-03-29T15:58:43;6.07;;;4.68;;
64799;SDS011;51233;51.982;4.594;2023-03-29T16:01:44;6.80;;;4.30;;
64799;SDS011;51233;51.982;4.594;2023-03-29T16:04:45;5.10;;;4.30;;
64799;SDS011;51233;51.982;4.594;2023-03-29T16:07:45;3.72;;;3.30;;
64799;SDS011;51233;51.982;4.594;2023-03-29T16:10:45;6.40;;;3.70;;
64799;SDS011;51233;51.982;4.594;2023-03-29T16:13:46;6.35;;;3.17;;
64799;SDS011;51233;51.982;4.594;2023-03-29T16:16:46;5.53;;;3.30;;
64799;SDS011;51233;51.982;4.594;2023-03-29T16:19:46;3.72;;;3.42;;
64799;SDS011;51233;51.982;4.594;2023-03-29T16:22:46;5.20;;;3.58;;
64799;SDS011;51233;51.982;4.594;2023-03-29T16:25:47;4.87;;;3.07;;
64799;SDS011;51233;51.982;4.594;2023-03-29T16:28:47;4.93;;;4.05;;
64799;SDS011;51233;51.982;4.594;2023-03-29T16:31:47;3.42;;;3.05;;
64799;SDS011;51233;51.982;4.594;2023-03-29T16:34:47;6.23;;;5.30;;
64799;SDS011;51233;51.982;4.594;2023-03-29T16:37:48;6.10;;;5.20;;
64799;SDS011;51233;51.982;4.594;2023-03-29T16:40:51;4.22;;;3.83;;
64799;SDS011;51233;51.982;4.594;2023-03-29T16:43:51;5.15;;;4.00;;
64799;SDS011;51233;51.982;4.594;2023-03-29T16:46:51;5.18;;;4.03;;
64799;SDS011;51233;51.982;4.594;2023-03-29T16:49:52;6.53;;;4.00;;
64799;SDS011;51233;51.982;4.594;2023-03-29T16:52:53;6.95;;;4.80;;
64799;SDS011;51233;51.982;4.594;2023-03-29T16:55:53;6.17;;;3.77;;
64799;SDS011;51233;51.982;4.594;2023-03-29T16:58:53;4.87;;;3.77;;
64799;SDS011;51233;51.982;4.594;2023-03-29T17:01:53;6.63;;;3.50;;
64799;SDS011;51233;51.982;4.594;2023-03-29T17:04:53;5.38;;;3.70;;
64799;SDS011;51233;51.982;4.594;2023-03-29T17:07:54;5.77;;;3.37;;
64799;SDS011;51233;51.982;4.594;2023-03-29T17:10:54;3.70;;;3.10;;
64799;SDS011;51233;51.982;4.594;2023-03-29T17:13:55;5.68;;;3.28;;
64799;SDS011;51233;51.982;4.594;2023-03-29T17:16:55;6.50;;;3.20;;
64799;SDS011;51233;51.982;4.594;2023-03-29T17:19:55;3.70;;;3.10;;
64799;SDS011;51233;51.982;4.594;2023-03-29T17:22:56;3.50;;;2.42;;
64799;SDS011;51233;51.982;4.594;2023-03-29T17:25:56;3.35;;;2.90;;
64799;SDS011;51233;51.982;4.594;2023-03-29T17:28:56;4.47;;;3.47;;
64799;SDS011;51233;51.982;4.594;2023-03-29T17:31:59;3.38;;;3.08;;
64799;SDS011;51233;51.982;4.594;2023-03-29T17:34:59;6.65;;;3.30;;
64799;SDS011;51233;51.982;4.594;2023-03-29T17:38:00;5.75;;;3.33;;
64799;SDS011;51233;51.982;4.594;2023-03-29T17:41:00;7.77;;;3.40;;
64799;SDS011;51233;51.982;4.594;2023-03-29T17:44:01;4.15;;;3.30;;
64799;SDS011;51233;51.982;4.594;2023-03-29T17:47:02;3.43;;;3.13;;
64799;SDS011;51233;51.982;4.594;2023-03-29T17:50:03;3.67;;;3.10;;
64799;SDS011;51233;51.982;4.594;2023-03-29T17:53:03;3.90;;;3.33;;
64799;SDS011;51233;51.982;4.594;2023-03-29T17:56:04;7.10;;;3.50;;
64799;SDS011;51233;51.982;4.594;2023-03-29T17:59:05;3.88;;;3.17;;
64799;SDS011;51233;51.982;4.594;2023-03-29T18:02:06;4.82;;;3.60;;
64799;SDS011;51233;51.982;4.594;2023-03-29T18:05:06;4.33;;;3.90;;
64799;SDS011;51233;51.982;4.594;2023-03-29T18:08:08;4.65;;;3.45;;
64799;SDS011;51233;51.982;4.594;2023-03-29T18:11:09;4.03;;;3.67;;
64799;SDS011;51233;51.982;4.594;2023-03-29T18:17:10;5.53;;;3.70;;
64799;SDS011;51233;51.982;4.594;2023-03-29T18:20:11;4.35;;;3.95;;
64799;SDS011;51233;51.982;4.594;2023-03-29T18:23:11;4.97;;;4.47;;
64799;SDS011;51233;51.982;4.594;2023-03-29T18:26:13;6.03;;;3.70;;
64799;SDS011;51233;51.982;4.594;2023-03-29T18:29:13;4.95;;;4.00;;
64799;SDS011;51233;51.982;4.594;2023-03-29T18:32:13;4.88;;;3.80;;
64799;SDS011;51233;51.982;4.594;2023-03-29T18:35:14;5.00;;;4.60;;
64799;SDS011;51233;51.982;4.594;2023-03-29T18:38:15;6.95;;;4.65;;
64799;SDS011;51233;51.982;4.594;2023-03-29T18:41:15;7.47;;;5.83;;
64799;SDS011;51233;51.982;4.594;2023-03-29T18:44:15;4.90;;;4.47;;
64799;SDS011;51233;51.982;4.594;2023-03-29T18:47:16;4.67;;;3.90;;
64799;SDS011;51233;51.982;4.594;2023-03-29T18:50:17;4.85;;;3.95;;
64799;SDS011;51233;51.982;4.594;2023-03-29T18:53:17;5.07;;;4.07;;
64799;SDS011;51233;51.982;4.594;2023-03-29T18:56:18;5.37;;;4.37;;
64799;SDS011;51233;51.982;4.594;2023-03-29T18:59:18;6.22;;;4.18;;
64799;SDS011;51233;51.982;4.594;2023-03-29T19:02:18;5.50;;;4.20;;
64799;SDS011;51233;51.982;4.594;2023-03-29T19:05:18;6.20;;;4.50;;
64799;SDS011;51233;51.982;4.594;2023-03-29T19:08:18;7.20;;;4.18;;
64799;SDS011;51233;51.982;4.594;2023-03-29T19:11:19;9.67;;;4.83;;
64799;SDS011;51233;51.982;4.594;2023-03-29T19:14:20;6.63;;;4.60;;
64799;SDS011;51233;51.982;4.594;2023-03-29T19:17:25;8.55;;;4.95;;
64799;SDS011;51233;51.982;4.594;2023-03-29T19:20:26;7.40;;;4.85;;
64799;SDS011;51233;51.982;4.594;2023-03-29T19:23:29;6.82;;;5.38;;
64799;SDS011;51233;51.982;4.594;2023-03-29T19:26:30;7.53;;;4.63;;
64799;SDS011;51233;51.982;4.594;2023-03-29T19:29:32;6.40;;;4.70;;
64799;SDS011;51233;51.982;4.594;2023-03-29T19:32:32;7.38;;;4.78;;
64799;SDS011;51233;51.982;4.594;2023-03-29T19:35:32;7.22;;;4.82;;
64799;SDS011;51233;51.982;4.594;2023-03-29T19:38:32;6.87;;;4.50;;
64799;SDS011;51233;51.982;4.594;2023-03-29T19:41:32;9.07;;;5.18;;
64799;SDS011;51233;51.982;4.594;2023-03-29T19:44:33;5.63;;;4.55;;
64799;SDS011;51233;51.982;4.594;2023-03-29T19:47:34;6.43;;;4.47;;
64799;SDS011;51233;51.982;4.594;2023-03-29T19:50:41;7.28;;;5.30;;
64799;SDS011;51233;51.982;4.594;2023-03-29T19:53:42;6.63;;;4.80;;